createdAt,value
2023-03-21T20:00:16.469Z,7.70
2023-03-21T20:01:18.187Z,8.77
2023-03-21T20:03:38.624Z,8.52
2023-03-21T20:04:40.527Z,8.85
2023-03-21T20:05:42.990Z,6.65
2023-03-21T20:06:45.453Z,7.60
2023-03-21T20:07:47.157Z,6.85
2023-03-21T20:10:11.253Z,8.63
2023-03-21T20:11:15.232Z,6.45
2023-03-21T20:12:16.947Z,7.68
2023-03-21T20:14:21.204Z,8.25
2023-03-21T20:15:28.373Z,7.78
2023-03-21T20:16:34.902Z,7.50
2023-03-21T20:17:39.867Z,7.55
2023-03-21T20:18:41.804Z,10.05
2023-03-21T20:19:43.554Z,6.47
2023-03-21T20:20:50.290Z,8.43
2023-03-21T20:21:59.358Z,8.50
2023-03-21T20:23:07.349Z,4.53
2023-03-21T20:24:10.995Z,7.78
2023-03-21T20:25:16.014Z,5.20
2023-03-21T20:26:17.753Z,6.78
2023-03-21T20:27:24.360Z,7.50
2023-03-21T20:28:28.579Z,9.52
2023-03-21T20:30:08.049Z,7.53
2023-03-21T20:30:56.909Z,6.78
2023-03-21T20:31:58.859Z,5.15
2023-03-21T20:33:02.877Z,4.10
2023-03-21T20:34:07.849Z,6.70
2023-03-21T20:35:20.796Z,6.15
2023-03-21T20:36:39.777Z,5.70
2023-03-21T20:37:47.969Z,3.80
2023-03-21T20:38:51.400Z,5.32
2023-03-21T20:39:55.647Z,9.93
2023-03-21T20:41:02.529Z,8.55
2023-03-21T20:42:05.450Z,3.55
2023-03-21T20:43:52.208Z,4.85
2023-03-21T20:44:56.813Z,4.95
2023-03-21T20:46:04.102Z,6.78
2023-03-21T20:47:05.944Z,3.95
2023-03-21T20:49:09.940Z,5.82
2023-03-21T20:50:14.046Z,5.65
2023-03-21T20:52:57.775Z,6.63
2023-03-21T20:54:02.533Z,5.72
2023-03-21T20:55:06.986Z,6.45
2023-03-21T20:56:08.964Z,7.22
2023-03-21T20:57:10.853Z,5.18
2023-03-21T20:58:43.613Z,3.67
2023-03-21T20:59:37.651Z,6.72
2023-03-21T21:00:40.060Z,3.35
2023-03-21T21:01:43.056Z,6.00
2023-03-21T21:02:47.496Z,5.78
2023-03-21T21:03:49.496Z,2.72
2023-03-21T21:05:21.948Z,2.88
2023-03-21T21:06:21.353Z,6.55
2023-03-21T21:07:23.341Z,5.60
2023-03-21T21:08:25.690Z,3.53
2023-03-21T21:09:27.492Z,5.00
2023-03-21T21:12:53.128Z,4.40
2023-03-21T21:14:56.928Z,3.30
2023-03-21T21:16:00.941Z,4.20
2023-03-21T21:17:21.001Z,4.78
2023-03-21T21:18:25.871Z,4.72
2023-03-21T21:19:29.963Z,5.18
2023-03-21T21:20:33.524Z,4.90
2023-03-21T21:21:35.229Z,7.78
2023-03-21T21:22:38.866Z,5.85
2023-03-21T21:23:43.500Z,5.72
2023-03-21T21:24:45.550Z,4.68
2023-03-21T21:25:54.325Z,7.45
2023-03-21T21:26:55.948Z,4.40
2023-03-21T21:27:57.612Z,4.57
2023-03-21T21:29:00.312Z,4.32
2023-03-21T21:30:05.454Z,6.30
2023-03-21T21:31:14.646Z,8.52
2023-03-21T21:32:18.483Z,5.78
2023-03-21T21:33:22.826Z,4.75
2023-03-21T21:34:24.559Z,6.35
2023-03-21T21:36:27.983Z,5.45
2023-03-21T21:38:36.353Z,5.70
2023-03-21T21:39:41.939Z,5.47
2023-03-21T21:40:45.508Z,5.15
2023-03-21T21:41:47.221Z,6.82
2023-03-21T21:43:50.522Z,4.95
2023-03-21T21:45:54.339Z,4.47
2023-03-21T21:46:57.496Z,5.22
2023-03-21T21:47:59.179Z,6.15
2023-03-21T21:49:02.001Z,3.55
2023-03-21T21:50:04.131Z,3.53
2023-03-21T21:51:06.209Z,4.55
2023-03-21T21:52:08.242Z,6.75
2023-03-21T21:53:13.509Z,5.25
2023-03-21T21:54:18.218Z,7.60
2023-03-21T21:55:21.403Z,5.10
2023-03-21T21:56:32.138Z,6.10
2023-03-21T21:57:34.698Z,4.20
2023-03-21T21:58:38.950Z,5.63
2023-03-21T21:59:40.753Z,7.20
2023-03-21T22:00:48.326Z,8.20
2023-03-21T22:01:52.480Z,4.53
2023-03-21T22:03:01.076Z,6.60
2023-03-21T22:04:06.250Z,6.00
2023-03-21T22:05:08.836Z,4.90
2023-03-21T22:06:10.683Z,5.03
2023-03-21T22:07:14.689Z,3.28
2023-03-21T22:08:16.676Z,10.15
2023-03-21T22:09:18.391Z,6.30
2023-03-21T22:12:24.412Z,4.40
2023-03-21T22:14:27.846Z,5.53
2023-03-21T22:15:33.295Z,5.47
2023-03-21T22:16:35.209Z,7.38
2023-03-21T22:17:37.103Z,4.25
2023-03-21T22:19:43.538Z,6.72
2023-03-21T22:20:48.167Z,9.68
2023-03-21T22:21:51.360Z,32.67
2023-03-21T22:22:56.687Z,66.32
2023-03-21T22:24:00.937Z,54.78
2023-03-21T22:25:04.442Z,27.63
2023-03-21T22:26:06.384Z,16.85
2023-03-21T22:27:10.339Z,9.25
2023-03-21T22:28:14.338Z,8.70
2023-03-21T22:30:18.609Z,7.57
2023-03-21T22:31:20.671Z,6.07
2023-03-21T22:32:22.954Z,5.63
2023-03-21T22:33:24.705Z,5.40
2023-03-21T22:35:28.299Z,6.57
2023-03-21T22:36:32.721Z,5.80
2023-03-21T22:38:38.300Z,6.43
2023-03-21T22:39:40.331Z,6.00
2023-03-21T22:40:42.491Z,5.55
2023-03-21T22:41:44.966Z,4.68
2023-03-21T22:42:46.716Z,6.07
2023-03-21T22:44:50.683Z,3.65
2023-03-21T22:45:53.098Z,2.75
2023-03-21T22:46:54.811Z,4.82
2023-03-21T22:48:58.148Z,2.95
2023-03-21T22:51:02.323Z,3.17
2023-03-21T22:52:06.926Z,3.72
2023-03-21T22:53:08.949Z,3.15
2023-03-21T22:54:15.467Z,3.30
2023-03-21T22:55:17.197Z,4.93
2023-03-21T22:57:20.971Z,5.22
2023-03-21T22:58:22.965Z,4.18
2023-03-21T22:59:25.496Z,7.43
2023-03-21T23:00:27.319Z,3.42
2023-03-21T23:02:30.693Z,2.88
2023-03-21T23:04:37.203Z,2.88
2023-03-21T23:05:42.576Z,3.75
2023-03-21T23:06:44.823Z,3.05
2023-03-21T23:07:46.656Z,5.53
2023-03-21T23:08:48.662Z,3.25
2023-03-21T23:09:50.627Z,7.65
2023-03-21T23:10:52.722Z,4.72
2023-03-21T23:11:54.774Z,3.40
2023-03-21T23:12:56.485Z,6.65
2023-03-21T23:14:07.689Z,5.38
2023-03-21T23:15:10.924Z,2.85
2023-03-21T23:16:12.629Z,5.95
2023-03-21T23:18:16.071Z,2.55
2023-03-21T23:19:19.958Z,9.38
2023-03-21T23:20:21.956Z,4.15
2023-03-21T23:21:25.406Z,3.95
2023-03-21T23:22:37.040Z,4.60
2023-03-21T23:23:43.813Z,3.35
2023-03-21T23:24:45.781Z,3.80
2023-03-21T23:25:47.662Z,5.95
2023-03-21T23:26:49.449Z,3.30
2023-03-21T23:27:51.360Z,6.05
2023-03-21T23:28:55.854Z,5.15
2023-03-21T23:30:01.041Z,4.32
2023-03-21T23:31:11.143Z,7.13
2023-03-21T23:32:15.997Z,5.25
2023-03-21T23:33:21.064Z,5.50
2023-03-21T23:34:22.915Z,5.88
2023-03-21T23:35:24.647Z,6.03
2023-03-21T23:37:30.074Z,2.70
2023-03-21T23:38:34.358Z,3.83
2023-03-21T23:39:36.143Z,6.47
2023-03-21T23:40:41.191Z,7.68
2023-03-21T23:41:45.165Z,5.80
2023-03-21T23:42:46.857Z,9.32
2023-03-21T23:44:52.634Z,5.85
2023-03-21T23:45:54.890Z,8.60
2023-03-21T23:46:58.748Z,4.72
2023-03-21T23:48:00.799Z,6.38
2023-03-21T23:49:02.573Z,7.10
2023-03-21T23:51:11.831Z,9.77
2023-03-21T23:52:13.496Z,5.60
2023-03-21T23:54:17.298Z,8.63
2023-03-21T23:56:23.887Z,10.85
2023-03-21T23:57:27.944Z,7.88
2023-03-21T23:58:29.989Z,5.55
2023-03-21T23:59:31.753Z,6.57
